Dunswell, United Kingdom
Current Conditions -  °F | °C
As of 9:50 AM on Friday 24 Oct 2014 (Local Time) from EGXV Reporting Station
Broken Clouds Broken Clouds  
Wind Chill: 13°   Ceiling: 2000
Heat Index: 13°   Visibility: 6mi
Dew Point: 11°   Wind: 9mph
Humidity: 88%   Direction: 270°W
Pressure: 29.85"   Gusts: NA
Location:  53.8°N, 0.37°W
Report Text: EGXV 240850Z AUTO 27008KT 9999 FEW011/// BKN020/// 13/11 Q1011
Loading
Personal Weather Stations






























Interactive Weather Map
Tropical Storm Tracking
New forecast layout! Learn more

10-Day Weather Forecast

Advertisements
Track Severe Weather on mobile